Stewartsville, New Jersey
Current Conditions -  °F | °C
As of 3:51 PM on Thursday 18 Dec 2014 (Local Time) from KABE Reporting Station
Overcast Overcast  
Wind Chill: 29°   Ceiling: 3600
Heat Index: 38°   Visibility: 10mi
Dew Point: 23°   Wind: 16mph
Humidity: 55%   Direction: 280°W
Pressure: 30"   Gusts: 20mph
Location:  40.7°N, 75.11°W
Report Text: KABE 182051Z 28014G17KT 10SM OVC036 03/M05 A3000 RMK AO2 SLP163 T00331050 55001
Loading
Personal Weather Stations






























Interactive Weather Map New forecast layout! Learn more

10-Day Weather Forecast

Advertisements
Track Severe Weather on mobile